Terminal Aerodrome Forecast
Issued by NWS Pueblo, CO

Home | Current Version | Previous Version | Text Only | Print | Product List | Glossary On
Versions: 1 2 3 4 5 6 7 8 9 10 11 12 13 14 15 16 17
000
FTUS45 KPUB 022002 AAD
TAFCOS
TAF AMD
KCOS 022002Z 0220/0318 16006KT P6SM -SHSN SCT020 OVC035
      TEMPO 0220/0224 3SM -SN BR BKN020
     FM030200 13006KT P6SM VCSH BKN020 BKN040
     FM030900 VRB06KT P6SM SCT030 BKN090
     FM031600 16008KT P6SM FEW120 SCT200=

USA.gov is the U.S. government's official web portal to all federal, state and local government web resources and services.